sensor_id;sensor_type;location;lat;lon;timestamp;pressure;altitude;pressure_sealevel;temperature;humidity
49341;BME280;35209;51.050;13.678;2023-12-04T00:03:06;147665.44;;;-4.00;100.00
49341;BME280;35209;51.050;13.678;2023-12-04T00:08:07;147639.94;;;-4.11;100.00
49341;BME280;35209;51.050;13.678;2023-12-04T00:13:09;147627.19;;;-4.16;100.00
49341;BME280;35209;51.050;13.678;2023-12-04T00:18:11;147606.75;;;-4.24;100.00
49341;BME280;35209;51.050;13.678;2023-12-04T00:23:13;147601.63;;;-4.26;100.00
49341;BME280;35209;51.050;13.678;2023-12-04T00:28:15;147620.78;;;-4.18;100.00
49341;BME280;35209;51.050;13.678;2023-12-04T00:33:16;147599.09;;;-4.27;100.00
49341;BME280;35209;51.050;13.678;2023-12-04T00:38:18;147568.47;;;-4.39;100.00
49341;BME280;35209;51.050;13.678;2023-12-04T00:43:20;147550.66;;;-4.46;100.00
49341;BME280;35209;51.050;13.678;2023-12-04T00:48:22;147627.19;;;-4.16;100.00
49341;BME280;35209;51.050;13.678;2023-12-04T00:53:24;147597.81;;;-4.27;100.00
49341;BME280;35209;51.050;13.678;2023-12-04T00:58:25;147573.59;;;-4.37;100.00
49341;BME280;35209;51.050;13.678;2023-12-04T01:03:28;147604.22;;;-4.25;100.00
49341;BME280;35209;51.050;13.678;2023-12-04T01:08:30;147550.66;;;-4.46;99.70
49341;BME280;35209;51.050;13.678;2023-12-04T01:13:32;147527.72;;;-4.55;100.00
49341;BME280;35209;51.050;13.678;2023-12-04T01:18:34;147520.03;;;-4.59;99.75
49341;BME280;35209;51.050;13.678;2023-12-04T01:23:36;147537.91;;;-4.51;99.37
49341;BME280;35209;51.050;13.678;2023-12-04T01:28:38;147526.38;;;-4.56;99.58
49341;BME280;35209;51.050;13.678;2023-12-04T01:33:39;147491.97;;;-4.70;97.20
49341;BME280;35209;51.050;13.678;2023-12-04T01:38:41;147420.59;;;-4.98;100.00
49341;BME280;35209;51.050;13.678;2023-12-04T01:43:43;147379.81;;;-5.15;100.00
49341;BME280;35209;51.050;13.678;2023-12-04T01:48:45;147339.06;;;-5.31;100.00
49341;BME280;35209;51.050;13.678;2023-12-04T01:53:48;147321.22;;;-5.38;100.00
49341;BME280;35209;51.050;13.678;2023-12-04T01:58:50;147336.47;;;-5.32;100.00
49341;BME280;35209;51.050;13.678;2023-12-04T02:03:52;147392.56;;;-5.10;100.00
49341;BME280;35209;51.050;13.678;2023-12-04T02:08:56;147474.16;;;-4.77;98.73
49341;BME280;35209;51.050;13.678;2023-12-04T02:13:58;147407.88;;;-5.03;98.84
49341;BME280;35209;51.050;13.678;2023-12-04T02:18:59;147372.19;;;-5.18;99.64
49341;BME280;35209;51.050;13.678;2023-12-04T02:24:04;147311.00;;;-5.42;99.08
49341;BME280;35209;51.050;13.678;2023-12-04T02:29:14;147252.44;;;-5.66;100.00
49341;BME280;35209;51.050;13.678;2023-12-04T02:34:18;147277.91;;;-5.55;100.00
49341;BME280;35209;51.050;13.678;2023-12-04T02:39:21;147312.28;;;-5.42;98.52
49341;BME280;35209;51.050;13.678;2023-12-04T02:44:23;147309.75;;;-5.43;99.37
49341;BME280;35209;51.050;13.678;2023-12-04T02:49:25;147288.09;;;-5.51;99.22
49341;BME280;35209;51.050;13.678;2023-12-04T02:54:28;147285.56;;;-5.52;99.81
49341;BME280;35209;51.050;13.678;2023-12-04T02:59:30;147387.47;;;-5.12;98.14
49341;BME280;35209;51.050;13.678;2023-12-04T03:04:33;147415.47;;;-5.00;95.66
49341;BME280;35209;51.050;13.678;2023-12-04T03:09:35;147364.53;;;-5.21;96.19
49341;BME280;35209;51.050;13.678;2023-12-04T03:14:50;147333.94;;;-5.33;97.01
49341;BME280;35209;51.050;13.678;2023-12-04T03:19:51;147326.28;;;-5.36;98.30
49341;BME280;35209;51.050;13.678;2023-12-04T03:24:53;147346.69;;;-5.28;97.79
49341;BME280;35209;51.050;13.678;2023-12-04T03:29:55;147364.53;;;-5.21;97.41
49341;BME280;35209;51.050;13.678;2023-12-04T03:34:57;147429.53;;;-4.95;96.09
49341;BME280;35209;51.050;13.678;2023-12-04T03:39:59;147433.34;;;-4.93;94.32
49341;BME280;35209;51.050;13.678;2023-12-04T03:45:01;147430.81;;;-4.94;95.58
49341;BME280;35209;51.050;13.678;2023-12-04T03:50:03;147434.63;;;-4.93;96.38
49341;BME280;35209;51.050;13.678;2023-12-04T03:55:05;147392.56;;;-5.10;97.08
49341;BME280;35209;51.050;13.678;2023-12-04T04:00:09;147437.16;;;-4.92;96.79
49341;BME280;35209;51.050;13.678;2023-12-04T04:05:14;147461.41;;;-4.82;96.88
49341;BME280;35209;51.050;13.678;2023-12-04T04:10:16;147432.09;;;-4.94;97.99
49341;BME280;35209;51.050;13.678;2023-12-04T04:15:17;147474.16;;;-4.77;96.89
49341;BME280;35209;51.050;13.678;2023-12-04T04:20:20;147502.19;;;-4.66;96.32
49341;BME280;35209;51.050;13.678;2023-12-04T04:25:21;147437.16;;;-4.92;96.34
49341;BME280;35209;51.050;13.678;2023-12-04T04:30:25;147384.94;;;-5.13;97.20
49341;BME280;35209;51.050;13.678;2023-12-04T04:35:27;147383.66;;;-5.13;97.28
49341;BME280;35209;51.050;13.678;2023-12-04T04:40:29;147370.88;;;-5.18;97.54
49341;BME280;35209;51.050;13.678;2023-12-04T04:45:31;147404.00;;;-5.05;97.39
49341;BME280;35209;51.050;13.678;2023-12-04T04:50:33;147391.28;;;-5.10;98.35
49341;BME280;35209;51.050;13.678;2023-12-04T04:55:34;147369.63;;;-5.19;99.13
49341;BME280;35209;51.050;13.678;2023-12-04T05:00:49;147410.41;;;-5.02;100.00
49341;BME280;35209;51.050;13.678;2023-12-04T05:05:51;147425.69;;;-4.96;100.00
49341;BME280;35209;51.050;13.678;2023-12-04T05:10:53;147433.34;;;-4.93;100.00
49341;BME280;35209;51.050;13.678;2023-12-04T05:15:55;147460.09;;;-4.83;100.00
49341;BME280;35209;51.050;13.678;2023-12-04T05:20:57;147494.56;;;-4.69;100.00
49341;BME280;35209;51.050;13.678;2023-12-04T05:25:58;147531.50;;;-4.54;100.00
49341;BME280;35209;51.050;13.678;2023-12-04T05:31:00;147534.06;;;-4.53;99.87
49341;BME280;35209;51.050;13.678;2023-12-04T05:36:03;147527.72;;;-4.55;99.93
49341;BME280;35209;51.050;13.678;2023-12-04T05:41:05;147530.25;;;-4.54;100.00
49341;BME280;35209;51.050;13.678;2023-12-04T05:46:06;147569.75;;;-4.39;100.00
49341;BME280;35209;51.050;13.678;2023-12-04T05:51:10;147590.16;;;-4.31;99.26
49341;BME280;35209;51.050;13.678;2023-12-04T05:56:12;147555.72;;;-4.44;99.83
49341;BME280;35209;51.050;13.678;2023-12-04T06:01:14;147608.03;;;-4.23;99.91
49341;BME280;35209;51.050;13.678;2023-12-04T06:06:17;147595.28;;;-4.28;100.00
49341;BME280;35209;51.050;13.678;2023-12-04T06:11:18;147600.38;;;-4.26;100.00
49341;BME280;35209;51.050;13.678;2023-12-04T06:16:20;147652.66;;;-4.06;99.73
49341;BME280;35209;51.050;13.678;2023-12-04T06:21:22;147636.06;;;-4.12;99.60
49341;BME280;35209;51.050;13.678;2023-12-04T06:26:24;147656.47;;;-4.04;100.00
49341;BME280;35209;51.050;13.678;2023-12-04T06:31:26;147710.06;;;-3.83;97.04
49341;BME280;35209;51.050;13.678;2023-12-04T06:36:31;147650.13;;;-4.07;98.79
49341;BME280;35209;51.050;13.678;2023-12-04T06:41:37;147674.38;;;-3.97;98.28
49341;BME280;35209;51.050;13.678;2023-12-04T06:46:40;147735.56;;;-3.72;95.82
49341;BME280;35209;51.050;13.678;2023-12-04T06:51:42;147707.53;;;-3.84;96.50
49341;BME280;35209;51.050;13.678;2023-12-04T06:56:44;147752.19;;;-3.66;94.59
49341;BME280;35209;51.050;13.678;2023-12-04T07:01:46;147702.41;;;-3.86;95.21
49341;BME280;35209;51.050;13.678;2023-12-04T07:06:48;147725.38;;;-3.76;94.44
49341;BME280;35209;51.050;13.678;2023-12-04T07:11:50;147710.06;;;-3.83;94.37
49341;BME280;35209;51.050;13.678;2023-12-04T07:16:52;147685.84;;;-3.92;94.25
49341;BME280;35209;51.050;13.678;2023-12-04T07:21:54;147724.09;;;-3.77;94.29
49341;BME280;35209;51.050;13.678;2023-12-04T07:26:56;147757.28;;;-3.64;93.16
49341;BME280;35209;51.050;13.678;2023-12-04T07:31:58;147743.25;;;-3.69;92.43
49341;BME280;35209;51.050;13.678;2023-12-04T07:37:00;147739.44;;;-3.71;93.50
49341;BME280;35209;51.050;13.678;2023-12-04T07:42:02;147743.25;;;-3.69;93.25
49341;BME280;35209;51.050;13.678;2023-12-04T07:47:13;147775.16;;;-3.57;92.52
49341;BME280;35209;51.050;13.678;2023-12-04T07:52:17;147827.50;;;-3.36;90.53
49341;BME280;35209;51.050;13.678;2023-12-04T07:57:20;147856.81;;;-3.24;90.78
49341;BME280;35209;51.050;13.678;2023-12-04T08:02:22;147890.00;;;-3.11;89.49
49341;BME280;35209;51.050;13.678;2023-12-04T08:07:24;147967.91;;;-2.80;88.15
49341;BME280;35209;51.050;13.678;2023-12-04T08:12:26;147948.78;;;-2.87;88.25
49341;BME280;35209;51.050;13.678;2023-12-04T08:17:29;147999.84;;;-2.67;86.51
49341;BME280;35209;51.050;13.678;2023-12-04T08:22:30;147964.09;;;-2.81;86.57
49341;BME280;35209;51.050;13.678;2023-12-04T08:27:33;148044.53;;;-2.49;85.31
49341;BME280;35209;51.050;13.678;2023-12-04T08:32:34;148056.03;;;-2.44;83.93
49341;BME280;35209;51.050;13.678;2023-12-04T08:37:36;148059.91;;;-2.43;83.85
49341;BME280;35209;51.050;13.678;2023-12-04T08:42:38;148040.72;;;-2.50;83.45
49341;BME280;35209;51.050;13.678;2023-12-04T08:47:40;148072.66;;;-2.38;83.08
49341;BME280;35209;51.050;13.678;2023-12-04T08:52:42;148119.94;;;-2.19;82.45
49341;BME280;35209;51.050;13.678;2023-12-04T08:57:44;148158.28;;;-2.04;80.96
49341;BME280;35209;51.050;13.678;2023-12-04T09:02:47;148192.78;;;-1.90;81.09
49341;BME280;35209;51.050;13.678;2023-12-04T09:07:58;148191.50;;;-1.90;79.44
49341;BME280;35209;51.050;13.678;2023-12-04T09:13:20;148197.88;;;-1.88;79.12
49341;BME280;35209;51.050;13.678;2023-12-04T09:18:21;148211.94;;;-1.82;79.27
49341;BME280;35209;51.050;13.678;2023-12-04T09:23:23;148183.84;;;-1.93;79.39
49341;BME280;35209;51.050;13.678;2023-12-04T09:28:27;148245.16;;;-1.69;79.36
49341;BME280;35209;51.050;13.678;2023-12-04T09:33:28;148261.81;;;-1.62;78.53
49341;BME280;35209;51.050;13.678;2023-12-04T09:38:30;148242.63;;;-1.70;79.39
49341;BME280;35209;51.050;13.678;2023-12-04T09:43:32;148298.84;;;-1.47;77.89
49341;BME280;35209;51.050;13.678;2023-12-04T09:48:34;148301.41;;;-1.46;77.88
49341;BME280;35209;51.050;13.678;2023-12-04T09:53:38;148287.34;;;-1.52;77.96
49341;BME280;35209;51.050;13.678;2023-12-04T09:58:41;148338.50;;;-1.32;76.48
49341;BME280;35209;51.050;13.678;2023-12-04T10:03:43;148353.84;;;-1.25;76.94
49341;BME280;35209;51.050;13.678;2023-12-04T10:08:45;148379.41;;;-1.15;76.06
49341;BME280;35209;51.050;13.678;2023-12-04T10:13:47;148329.56;;;-1.35;77.22
49341;BME280;35209;51.050;13.678;2023-12-04T10:19:20;148403.75;;;-1.06;76.50
49341;BME280;35209;51.050;13.678;2023-12-04T10:24:41;148341.06;;;-1.31;77.60
49341;BME280;35209;51.050;13.678;2023-12-04T10:29:45;148369.22;;;-1.19;76.98
49341;BME280;35209;51.050;13.678;2023-12-04T10:34:48;148388.38;;;-1.12;77.06
49341;BME280;35209;51.050;13.678;2023-12-04T10:39:50;148465.13;;;-0.81;77.17
49341;BME280;35209;51.050;13.678;2023-12-04T10:44:57;148449.78;;;-0.87;75.76
49341;BME280;35209;51.050;13.678;2023-12-04T10:49:59;148467.66;;;-0.80;76.66
49341;BME280;35209;51.050;13.678;2023-12-04T10:55:01;148412.66;;;-1.02;75.93
49341;BME280;35209;51.050;13.678;2023-12-04T11:00:06;148428.03;;;-0.96;76.15
49341;BME280;35209;51.050;13.678;2023-12-04T11:05:14;148458.75;;;-0.84;74.82
49341;BME280;35209;51.050;13.678;2023-12-04T11:10:22;148508.63;;;-0.64;73.27
49341;BME280;35209;51.050;13.678;2023-12-04T11:15:27;148581.56;;;-0.35;71.60
49341;BME280;35209;51.050;13.678;2023-12-04T11:20:35;148502.25;;;-0.66;72.63
49341;BME280;35209;51.050;13.678;2023-12-04T11:25:38;148518.84;;;-0.60;72.50
49341;BME280;35209;51.050;13.678;2023-12-04T11:30:40;148460.03;;;-0.83;72.67
49341;BME280;35209;51.050;13.678;2023-12-04T11:35:44;148434.41;;;-0.93;74.35
49341;BME280;35209;51.050;13.678;2023-12-04T11:40:46;148420.34;;;-0.99;74.07
49341;BME280;35209;51.050;13.678;2023-12-04T11:45:48;148408.84;;;-1.04;74.82
49341;BME280;35209;51.050;13.678;2023-12-04T11:50:51;148407.56;;;-1.04;74.74
49341;BME280;35209;51.050;13.678;2023-12-04T11:55:55;148408.84;;;-1.04;74.30
49341;BME280;35209;51.050;13.678;2023-12-04T12:00:59;148392.22;;;-1.10;74.07
49341;BME280;35209;51.050;13.678;2023-12-04T12:06:03;148396.06;;;-1.09;75.35
49341;BME280;35209;51.050;13.678;2023-12-04T12:11:06;148421.63;;;-0.98;74.30
49341;BME280;35209;51.050;13.678;2023-12-04T12:16:08;148421.63;;;-0.98;73.93
49341;BME280;35209;51.050;13.678;2023-12-04T12:21:10;148447.25;;;-0.88;74.65
49341;BME280;35209;51.050;13.678;2023-12-04T12:26:12;148445.91;;;-0.89;74.02
49341;BME280;35209;51.050;13.678;2023-12-04T12:31:14;148465.13;;;-0.81;74.24
49341;BME280;35209;51.050;13.678;2023-12-04T12:36:16;148447.25;;;-0.88;72.70
49341;BME280;35209;51.050;13.678;2023-12-04T12:41:19;148407.56;;;-1.04;73.45
49341;BME280;35209;51.050;13.678;2023-12-04T12:46:22;148471.53;;;-0.79;73.28
49341;BME280;35209;51.050;13.678;2023-12-04T12:51:24;148454.88;;;-0.85;72.99
49341;BME280;35209;51.050;13.678;2023-12-04T12:56:25;148403.75;;;-1.06;73.74
49341;BME280;35209;51.050;13.678;2023-12-04T13:01:32;148456.16;;;-0.85;72.95
49341;BME280;35209;51.050;13.678;2023-12-04T13:06:34;148431.84;;;-0.94;74.95
49341;BME280;35209;51.050;13.678;2023-12-04T13:11:36;148383.28;;;-1.14;75.07
49341;BME280;35209;51.050;13.678;2023-12-04T13:16:39;148403.75;;;-1.06;75.82
49341;BME280;35209;51.050;13.678;2023-12-04T13:21:41;148406.28;;;-1.05;75.53
49341;BME280;35209;51.050;13.678;2023-12-04T13:26:44;148384.53;;;-1.13;75.12
49341;BME280;35209;51.050;13.678;2023-12-04T13:31:46;148433.13;;;-0.94;74.70
49341;BME280;35209;51.050;13.678;2023-12-04T13:36:52;148396.06;;;-1.09;75.93
49341;BME280;35209;51.050;13.678;2023-12-04T13:41:55;148380.72;;;-1.15;76.16
49341;BME280;35209;51.050;13.678;2023-12-04T13:47:15;148421.63;;;-0.98;76.65
49341;BME280;35209;51.050;13.678;2023-12-04T13:52:17;148412.66;;;-1.02;75.83
49341;BME280;35209;51.050;13.678;2023-12-04T13:57:24;148361.53;;;-1.22;76.18
49341;BME280;35209;51.050;13.678;2023-12-04T14:02:35;148387.09;;;-1.12;75.93
49341;BME280;35209;51.050;13.678;2023-12-04T14:07:39;148360.25;;;-1.23;76.91
49341;BME280;35209;51.050;13.678;2023-12-04T14:12:41;148350.03;;;-1.27;76.36
49341;BME280;35209;51.050;13.678;2023-12-04T14:17:43;148298.84;;;-1.47;76.95
49341;BME280;35209;51.050;13.678;2023-12-04T14:22:45;148305.28;;;-1.45;76.63
49341;BME280;35209;51.050;13.678;2023-12-04T14:27:50;148342.34;;;-1.30;76.29
49341;BME280;35209;51.050;13.678;2023-12-04T14:32:51;148321.88;;;-1.38;74.87
49341;BME280;35209;51.050;13.678;2023-12-04T14:37:53;148268.16;;;-1.60;76.55
49341;BME280;35209;51.050;13.678;2023-12-04T14:42:55;148300.13;;;-1.47;77.24
49341;BME280;35209;51.050;13.678;2023-12-04T14:47:57;148318.06;;;-1.40;76.64
49341;BME280;35209;51.050;13.678;2023-12-04T14:53:00;148247.75;;;-1.68;76.79
49341;BME280;35209;51.050;13.678;2023-12-04T14:58:16;148292.50;;;-1.50;76.75
49341;BME280;35209;51.050;13.678;2023-12-04T15:03:20;148255.38;;;-1.65;77.51
49341;BME280;35209;51.050;13.678;2023-12-04T15:08:25;148268.16;;;-1.60;77.87
49341;BME280;35209;51.050;13.678;2023-12-04T15:14:06;148228.56;;;-1.75;77.63
49341;BME280;35209;51.050;13.678;2023-12-04T15:19:26;148266.88;;;-1.60;77.78
49341;BME280;35209;51.050;13.678;2023-12-04T15:24:38;148265.63;;;-1.61;77.08
49341;BME280;35209;51.050;13.678;2023-12-04T15:29:40;148246.44;;;-1.68;77.96
49341;BME280;35209;51.050;13.678;2023-12-04T15:34:42;148243.88;;;-1.69;77.60
49341;BME280;35209;51.050;13.678;2023-12-04T15:39:45;148256.66;;;-1.64;77.08
49341;BME280;35209;51.050;13.678;2023-12-04T15:44:47;148232.38;;;-1.74;77.62
49341;BME280;35209;51.050;13.678;2023-12-04T15:49:48;148192.78;;;-1.90;78.62
49341;BME280;35209;51.050;13.678;2023-12-04T15:54:50;148274.56;;;-1.57;77.71
49341;BME280;35209;51.050;13.678;2023-12-04T15:59:52;148247.75;;;-1.68;77.14
49341;BME280;35209;51.050;13.678;2023-12-04T16:04:54;148268.16;;;-1.60;77.18
49341;BME280;35209;51.050;13.678;2023-12-04T16:09:59;148274.56;;;-1.57;76.68
49341;BME280;35209;51.050;13.678;2023-12-04T16:15:01;148284.81;;;-1.53;76.63
49341;BME280;35209;51.050;13.678;2023-12-04T16:20:06;148250.28;;;-1.67;75.83
49341;BME280;35209;51.050;13.678;2023-12-04T16:25:13;148273.31;;;-1.58;77.59
49341;BME280;35209;51.050;13.678;2023-12-04T16:30:20;148283.53;;;-1.54;77.12
49341;BME280;35209;51.050;13.678;2023-12-04T16:35:23;148279.66;;;-1.55;76.09
49341;BME280;35209;51.050;13.678;2023-12-04T16:40:25;148270.75;;;-1.59;76.49
49341;BME280;35209;51.050;13.678;2023-12-04T16:45:26;148263.06;;;-1.62;75.93
49341;BME280;35209;51.050;13.678;2023-12-04T16:50:29;148245.16;;;-1.69;77.70
49341;BME280;35209;51.050;13.678;2023-12-04T16:55:33;148243.88;;;-1.69;77.13
49341;BME280;35209;51.050;13.678;2023-12-04T17:00:35;148242.63;;;-1.70;77.59
49341;BME280;35209;51.050;13.678;2023-12-04T17:05:36;148219.59;;;-1.79;79.04
49341;BME280;35209;51.050;13.678;2023-12-04T17:10:38;148246.44;;;-1.68;79.61
49341;BME280;35209;51.050;13.678;2023-12-04T17:15:41;148275.84;;;-1.57;78.76
49341;BME280;35209;51.050;13.678;2023-12-04T17:20:43;148240.06;;;-1.71;79.31
49341;BME280;35209;51.050;13.678;2023-12-04T17:25:46;148252.84;;;-1.66;79.39
49341;BME280;35209;51.050;13.678;2023-12-04T17:30:48;148256.66;;;-1.64;78.90
49341;BME280;35209;51.050;13.678;2023-12-04T17:35:49;148219.59;;;-1.79;79.22
49341;BME280;35209;51.050;13.678;2023-12-04T17:40:52;148217.06;;;-1.80;79.65
49341;BME280;35209;51.050;13.678;2023-12-04T17:45:54;148227.28;;;-1.76;79.63
49341;BME280;35209;51.050;13.678;2023-12-04T17:50:57;148243.88;;;-1.69;79.29
49341;BME280;35209;51.050;13.678;2023-12-04T17:55:59;148241.34;;;-1.70;78.59
49341;BME280;35209;51.050;13.678;2023-12-04T18:01:01;148241.34;;;-1.70;78.62
49341;BME280;35209;51.050;13.678;2023-12-04T18:06:03;148155.69;;;-2.05;80.08
49341;BME280;35209;51.050;13.678;2023-12-04T18:11:06;148200.41;;;-1.87;79.26
49341;BME280;35209;51.050;13.678;2023-12-04T18:16:08;148206.84;;;-1.84;78.52
49341;BME280;35209;51.050;13.678;2023-12-04T18:21:10;148151.88;;;-2.06;80.10
49341;BME280;35209;51.050;13.678;2023-12-04T18:26:12;148137.84;;;-2.12;80.76
49341;BME280;35209;51.050;13.678;2023-12-04T18:31:15;148163.38;;;-2.01;80.10
49341;BME280;35209;51.050;13.678;2023-12-04T18:36:18;148183.84;;;-1.93;80.05
49341;BME280;35209;51.050;13.678;2023-12-04T18:41:21;148133.97;;;-2.13;80.92
49341;BME280;35209;51.050;13.678;2023-12-04T18:46:25;148177.41;;;-1.96;80.45
49341;BME280;35209;51.050;13.678;2023-12-04T18:51:30;148210.66;;;-1.83;78.79
49341;BME280;35209;51.050;13.678;2023-12-04T18:56:33;148162.09;;;-2.02;80.73
49341;BME280;35209;51.050;13.678;2023-12-04T19:01:34;148159.56;;;-2.03;80.71
49341;BME280;35209;51.050;13.678;2023-12-04T19:06:37;148153.16;;;-2.06;80.68
49341;BME280;35209;51.050;13.678;2023-12-04T19:11:39;148191.50;;;-1.90;79.54
49341;BME280;35209;51.050;13.678;2023-12-04T19:16:40;148213.19;;;-1.82;78.35
49341;BME280;35209;51.050;13.678;2023-12-04T19:21:42;148229.84;;;-1.75;78.00
49341;BME280;35209;51.050;13.678;2023-12-04T19:26:44;148164.66;;;-2.01;79.27
49341;BME280;35209;51.050;13.678;2023-12-04T19:31:46;148183.84;;;-1.93;79.48
49341;BME280;35209;51.050;13.678;2023-12-04T19:36:48;148237.53;;;-1.72;77.78
49341;BME280;35209;51.050;13.678;2023-12-04T19:41:50;148238.78;;;-1.71;78.19
49341;BME280;35209;51.050;13.678;2023-12-04T19:46:52;148188.91;;;-1.91;79.87
49341;BME280;35209;51.050;13.678;2023-12-04T19:51:56;148226.00;;;-1.76;77.37
49341;BME280;35209;51.050;13.678;2023-12-04T19:56:57;148211.94;;;-1.82;78.11
49341;BME280;35209;51.050;13.678;2023-12-04T20:02:02;148251.56;;;-1.66;77.88
49341;BME280;35209;51.050;13.678;2023-12-04T20:07:05;148241.34;;;-1.70;77.63
49341;BME280;35209;51.050;13.678;2023-12-04T20:12:07;148214.50;;;-1.81;78.55
49341;BME280;35209;51.050;13.678;2023-12-04T20:17:09;148252.84;;;-1.66;77.19
49341;BME280;35209;51.050;13.678;2023-12-04T20:22:10;148229.84;;;-1.75;77.79
49341;BME280;35209;51.050;13.678;2023-12-04T20:27:14;148218.34;;;-1.80;77.90
49341;BME280;35209;51.050;13.678;2023-12-04T20:32:16;148227.28;;;-1.76;77.52
49341;BME280;35209;51.050;13.678;2023-12-04T20:37:18;148260.53;;;-1.63;78.04
49341;BME280;35209;51.050;13.678;2023-12-04T20:42:20;148257.97;;;-1.64;78.51
49341;BME280;35209;51.050;13.678;2023-12-04T20:47:21;148227.28;;;-1.76;77.99
49341;BME280;35209;51.050;13.678;2023-12-04T20:52:23;148245.16;;;-1.69;77.88
49341;BME280;35209;51.050;13.678;2023-12-04T20:57:25;148226.00;;;-1.76;78.60
49341;BME280;35209;51.050;13.678;2023-12-04T21:02:27;148240.06;;;-1.71;77.98
49341;BME280;35209;51.050;13.678;2023-12-04T21:07:30;148222.16;;;-1.78;79.22
49341;BME280;35209;51.050;13.678;2023-12-04T21:12:32;148229.84;;;-1.75;78.92
49341;BME280;35209;51.050;13.678;2023-12-04T21:17:34;148255.38;;;-1.65;77.89
49341;BME280;35209;51.050;13.678;2023-12-04T21:22:36;148255.38;;;-1.65;77.59
49341;BME280;35209;51.050;13.678;2023-12-04T21:27:39;148236.25;;;-1.72;78.63
49341;BME280;35209;51.050;13.678;2023-12-04T21:32:41;148238.78;;;-1.71;78.68
49341;BME280;35209;51.050;13.678;2023-12-04T21:37:44;148263.06;;;-1.62;77.84
49341;BME280;35209;51.050;13.678;2023-12-04T21:42:47;148256.66;;;-1.64;79.52
49341;BME280;35209;51.050;13.678;2023-12-04T21:47:49;148246.44;;;-1.68;79.59
49341;BME280;35209;51.050;13.678;2023-12-04T21:52:50;148284.81;;;-1.53;80.27
49341;BME280;35209;51.050;13.678;2023-12-04T21:57:52;148265.63;;;-1.61;78.98
49341;BME280;35209;51.050;13.678;2023-12-04T22:02:55;148298.84;;;-1.47;79.06
49341;BME280;35209;51.050;13.678;2023-12-04T22:07:57;148243.88;;;-1.69;81.31
49341;BME280;35209;51.050;13.678;2023-12-04T22:12:59;148269.47;;;-1.59;80.70
49341;BME280;35209;51.050;13.678;2023-12-04T22:18:00;148242.63;;;-1.70;80.97
49341;BME280;35209;51.050;13.678;2023-12-04T22:23:03;148309.09;;;-1.43;79.63
49341;BME280;35209;51.050;13.678;2023-12-04T22:28:06;148330.84;;;-1.35;78.87
49341;BME280;35209;51.050;13.678;2023-12-04T22:33:08;148318.06;;;-1.40;79.37
49341;BME280;35209;51.050;13.678;2023-12-04T22:38:10;148284.81;;;-1.53;79.93
49341;BME280;35209;51.050;13.678;2023-12-04T22:43:11;148302.72;;;-1.46;79.76
49341;BME280;35209;51.050;13.678;2023-12-04T22:48:14;148275.84;;;-1.57;79.85
49341;BME280;35209;51.050;13.678;2023-12-04T22:53:16;148342.34;;;-1.30;78.24
49341;BME280;35209;51.050;13.678;2023-12-04T22:58:18;148353.84;;;-1.25;77.88
49341;BME280;35209;51.050;13.678;2023-12-04T23:03:19;148352.56;;;-1.26;78.39
49341;BME280;35209;51.050;13.678;2023-12-04T23:08:21;148329.56;;;-1.35;79.43
49341;BME280;35209;51.050;13.678;2023-12-04T23:13:23;148307.81;;;-1.44;79.54
49341;BME280;35209;51.050;13.678;2023-12-04T23:18:25;148350.03;;;-1.27;78.14
49341;BME280;35209;51.050;13.678;2023-12-04T23:23:26;148311.63;;;-1.42;79.14
49341;BME280;35209;51.050;13.678;2023-12-04T23:28:28;148351.28;;;-1.27;78.67
49341;BME280;35209;51.050;13.678;2023-12-04T23:33:30;148324.47;;;-1.37;79.84
49341;BME280;35209;51.050;13.678;2023-12-04T23:38:33;148259.25;;;-1.63;80.34
49341;BME280;35209;51.050;13.678;2023-12-04T23:43:35;148305.28;;;-1.45;80.21
49341;BME280;35209;51.050;13.678;2023-12-04T23:48:36;148312.91;;;-1.42;80.42
49341;BME280;35209;51.050;13.678;2023-12-04T23:53:40;148273.31;;;-1.58;81.13
49341;BME280;35209;51.050;13.678;2023-12-04T23:58:41;148292.50;;;-1.50;81.24
